Time;durP1;ratioP1;P1;durP2;ratioP2;P2;SDS_P1;SDS_P2;PMS_P1;PMS_P2;Temp;Humidity;BMP_temperature;BMP_pressure;BME280_temperature;BME280_humidity;BME280_pressure;Samples;Min_cycle;Max_cycle;Signal;HPM_P1;HPM_P2
2022/10/29 00:00:08;;;;;;;19.93;12.27;;;;;;;;;;5076557;28;20454;-68
2022/10/29 00:02:36;;;;;;;19.00;10.33;;;;;;;;;;5076008;28;20477;-68
2022/10/29 00:05:04;;;;;;;25.90;10.67;;;;;;;;;;5076778;28;20452;-67
2022/10/29 00:07:31;;;;;;;19.87;9.57;;;;;;;;;;5076017;28;20447;-67
2022/10/29 00:09:58;;;;;;;16.80;10.07;;;;;;;;;;5076453;28;20789;-67
2022/10/29 00:12:25;;;;;;;21.93;9.57;;;;;;;;;;5076234;28;20475;-67
2022/10/29 00:14:52;;;;;;;21.40;9.93;;;;;;;;;;5076656;28;20440;-67
2022/10/29 00:17:19;;;;;;;18.13;10.57;;;;;;;;;;5076130;28;20444;-67
2022/10/29 00:19:48;;;;;;;20.87;11.73;;;;;;;;;;5076184;28;20441;-68
2022/10/29 00:22:16;;;;;;;19.83;10.40;;;;;;;;;;5076228;28;20451;-67
2022/10/29 00:24:43;;;;;;;17.87;10.60;;;;;;;;;;5075946;28;20492;-67
2022/10/29 00:27:10;;;;;;;15.40;10.73;;;;;;;;;;5076170;28;20434;-67
2022/10/29 00:29:37;;;;;;;16.30;10.67;;;;;;;;;;5076031;28;20447;-67
2022/10/29 00:32:04;;;;;;;19.43;10.77;;;;;;;;;;5075967;28;20464;-67
2022/10/29 00:34:32;;;;;;;21.27;11.03;;;;;;;;;;5075737;28;20481;-67
2022/10/29 00:37:00;;;;;;;20.67;10.87;;;;;;;;;;5075919;28;20453;-68
2022/10/29 00:39:28;;;;;;;17.67;12.00;;;;;;;;;;5075447;28;20452;-67
2022/10/29 00:41:55;;;;;;;26.13;10.70;;;;;;;;;;5075913;28;20457;-67
2022/10/29 00:44:26;;;;;;;20.83;10.70;;;;;;;;;;5075560;28;20498;-67
2022/10/29 00:46:54;;;;;;;21.53;11.30;;;;;;;;;;5075196;28;20448;-67
2022/10/29 00:49:23;;;;;;;30.70;12.23;;;;;;;;;;5074949;28;20931;-67
2022/10/29 00:51:51;;;;;;;18.00;9.57;;;;;;;;;;5075918;28;20437;-67
2022/10/29 00:54:20;;;;;;;24.03;11.47;;;;;;;;;;5075790;28;20440;-68
2022/10/29 00:56:48;;;;;;;19.40;12.40;;;;;;;;;;5075580;28;20813;-67
2022/10/29 00:59:16;;;;;;;21.23;11.03;;;;;;;;;;5075368;28;20458;-67
2022/10/29 01:01:44;;;;;;;25.97;11.00;;;;;;;;;;5075487;28;20790;-68
2022/10/29 01:04:12;;;;;;;25.13;11.73;;;;;;;;;;5074911;28;21027;-68
2022/10/29 01:06:39;;;;;;;22.23;12.20;;;;;;;;;;5074967;28;20446;-68
2022/10/29 01:09:06;;;;;;;27.60;11.90;;;;;;;;;;5075242;28;20797;-67
2022/10/29 01:11:41;;;;;;;20.87;12.37;;;;;;;;;;5075539;28;20890;-67
2022/10/29 01:14:23;;;;;;;24.33;12.67;;;;;;;;;;5075521;28;20443;-68
2022/10/29 01:16:54;;;;;;;24.20;13.57;;;;;;;;;;5075198;28;20436;-68
2022/10/29 01:19:29;;;;;;;19.77;12.27;;;;;;;;;;5075050;28;20421;-68
2022/10/29 01:21:58;;;;;;;17.47;11.47;;;;;;;;;;5075105;28;20426;-68
2022/10/29 01:24:46;;;;;;;19.37;11.07;;;;;;;;;;5074566;28;20985;-67
2022/10/29 01:27:26;;;;;;;17.07;11.20;;;;;;;;;;5075184;28;20432;-68
2022/10/29 01:30:00;;;;;;;15.57;11.13;;;;;;;;;;5074558;28;20442;-68
2022/10/29 01:32:33;;;;;;;20.43;11.57;;;;;;;;;;5074852;28;20429;-68
2022/10/29 01:35:03;;;;;;;18.17;11.17;;;;;;;;;;5074961;28;20785;-67
2022/10/29 01:37:32;;;;;;;30.17;11.77;;;;;;;;;;5075030;28;20448;-68
2022/10/29 01:40:05;;;;;;;25.03;12.47;;;;;;;;;;5074544;28;20441;-68
2022/10/29 01:42:36;;;;;;;16.93;10.70;;;;;;;;;;5074506;28;20428;-68
2022/10/29 01:45:08;;;;;;;22.33;11.63;;;;;;;;;;5074400;28;20471;-67
2022/10/29 01:47:39;;;;;;;23.30;11.27;;;;;;;;;;5074876;28;20444;-67
2022/10/29 01:50:08;;;;;;;28.33;12.57;;;;;;;;;;5074552;28;20437;-68
2022/10/29 01:52:36;;;;;;;24.03;12.23;;;;;;;;;;5074535;28;20450;-67
2022/10/29 01:55:04;;;;;;;23.00;12.00;;;;;;;;;;5074331;28;20442;-68
2022/10/29 01:57:32;;;;;;;22.23;12.40;;;;;;;;;;5074026;28;20449;-68
2022/10/29 02:00:02;;;;;;;23.40;12.70;;;;;;;;;;5073637;28;20462;-68
2022/10/29 02:02:31;;;;;;;25.03;12.47;;;;;;;;;;5074252;28;20793;-68
2022/10/29 02:05:03;;;;;;;17.73;11.17;;;;;;;;;;5073804;28;20856;-67
2022/10/29 02:07:35;;;;;;;23.83;12.93;;;;;;;;;;5074242;28;20509;-68
2022/10/29 02:10:07;;;;;;;22.30;12.30;;;;;;;;;;5074117;28;20440;-68
2022/10/29 02:12:35;;;;;;;26.77;14.17;;;;;;;;;;5074126;28;20441;-68
2022/10/29 02:15:04;;;;;;;22.63;11.70;;;;;;;;;;5073794;28;20466;-68
2022/10/29 02:17:32;;;;;;;20.83;12.73;;;;;;;;;;5073994;28;20444;-67
2022/10/29 02:19:59;;;;;;;27.57;13.10;;;;;;;;;;5073567;28;20441;-67
2022/10/29 02:22:28;;;;;;;20.90;13.87;;;;;;;;;;5074314;28;20445;-68
2022/10/29 02:24:55;;;;;;;18.03;12.77;;;;;;;;;;5074005;28;20489;-67
2022/10/29 02:27:22;;;;;;;20.73;12.37;;;;;;;;;;5074372;28;20441;-68
2022/10/29 02:29:49;;;;;;;19.50;12.23;;;;;;;;;;5073960;28;20432;-68
2022/10/29 02:32:16;;;;;;;25.90;12.53;;;;;;;;;;5074030;28;20442;-68
2022/10/29 02:34:44;;;;;;;18.07;11.90;;;;;;;;;;5073474;28;20451;-68
2022/10/29 02:37:11;;;;;;;21.60;13.43;;;;;;;;;;5073781;28;20449;-68
2022/10/29 02:39:39;;;;;;;24.73;13.23;;;;;;;;;;5073904;28;20452;-68
2022/10/29 02:42:06;;;;;;;20.20;12.90;;;;;;;;;;5073389;28;20459;-68
2022/10/29 02:44:34;;;;;;;14.73;11.77;;;;;;;;;;5073851;28;20481;-68
2022/10/29 02:47:01;;;;;;;22.87;13.17;;;;;;;;;;5073898;28;20441;-68
2022/10/29 02:49:28;;;;;;;18.20;13.10;;;;;;;;;;5073795;28;20449;-68
2022/10/29 02:51:56;;;;;;;33.67;13.93;;;;;;;;;;5073556;28;20569;-68
2022/10/29 02:54:23;;;;;;;26.80;14.70;;;;;;;;;;5073410;28;20446;-68
2022/10/29 02:56:51;;;;;;;27.43;14.60;;;;;;;;;;5073488;28;20445;-68
2022/10/29 02:59:19;;;;;;;20.93;12.43;;;;;;;;;;5073325;28;20447;-68
2022/10/29 03:01:46;;;;;;;25.17;13.80;;;;;;;;;;5073498;28;20536;-68
2022/10/29 03:04:13;;;;;;;17.80;12.60;;;;;;;;;;5073539;28;20475;-68
2022/10/29 03:06:40;;;;;;;24.17;13.70;;;;;;;;;;5073618;28;20446;-68
2022/10/29 03:09:08;;;;;;;23.10;14.07;;;;;;;;;;5073087;28;20457;-68
2022/10/29 03:11:35;;;;;;;23.23;13.73;;;;;;;;;;5075333;28;20948;-68
2022/10/29 03:14:03;;;;;;;26.53;15.10;;;;;;;;;;5077122;28;20452;-68
2022/10/29 03:16:30;;;;;;;24.93;13.50;;;;;;;;;;5077309;28;20473;-67
2022/10/29 03:18:58;;;;;;;25.07;13.53;;;;;;;;;;5077402;28;20545;-67
2022/10/29 03:21:25;;;;;;;20.90;14.50;;;;;;;;;;5077256;28;20439;-68
2022/10/29 03:23:52;;;;;;;18.50;14.00;;;;;;;;;;5076919;28;20479;-68
2022/10/29 03:26:19;;;;;;;26.30;13.53;;;;;;;;;;5077255;28;20821;-68
2022/10/29 03:28:46;;;;;;;17.73;13.83;;;;;;;;;;5077343;28;20470;-67
2022/10/29 03:31:15;;;;;;;19.60;14.37;;;;;;;;;;5077188;28;20437;-67
2022/10/29 03:33:42;;;;;;;28.80;14.70;;;;;;;;;;5077431;28;20453;-67
2022/10/29 03:36:10;;;;;;;28.60;14.97;;;;;;;;;;5077190;28;20541;-67
2022/10/29 03:38:37;;;;;;;29.50;14.27;;;;;;;;;;5076908;28;20443;-67
2022/10/29 03:41:09;;;;;;;21.73;14.93;;;;;;;;;;5076831;28;20450;-66
2022/10/29 03:43:36;;;;;;;27.90;15.27;;;;;;;;;;5077619;28;20431;-67
2022/10/29 03:46:03;;;;;;;24.80;16.20;;;;;;;;;;5076680;28;20443;-67
2022/10/29 03:48:32;;;;;;;21.73;14.10;;;;;;;;;;5076898;28;20799;-66
2022/10/29 03:51:01;;;;;;;27.10;15.97;;;;;;;;;;5076610;28;20444;-66
2022/10/29 03:53:28;;;;;;;23.23;14.67;;;;;;;;;;5076665;28;20441;-67
2022/10/29 03:55:56;;;;;;;23.23;15.90;;;;;;;;;;5075624;28;20451;-67
2022/10/29 03:58:23;;;;;;;22.80;14.77;;;;;;;;;;5075850;28;20962;-66
2022/10/29 04:00:54;;;;;;;24.57;16.33;;;;;;;;;;5076282;28;20799;-67
2022/10/29 04:03:21;;;;;;;21.63;15.03;;;;;;;;;;5076304;28;20445;-67
2022/10/29 04:05:50;;;;;;;33.77;16.00;;;;;;;;;;5075681;28;20497;-67
2022/10/29 04:08:17;;;;;;;25.07;16.07;;;;;;;;;;5075903;28;20913;-66
2022/10/29 04:10:45;;;;;;;27.57;16.10;;;;;;;;;;5075781;28;20435;-67
2022/10/29 04:13:12;;;;;;;23.47;14.40;;;;;;;;;;5075539;28;20450;-67
2022/10/29 04:15:39;;;;;;;24.50;15.70;;;;;;;;;;5075906;28;20962;-67
2022/10/29 04:18:07;;;;;;;21.90;14.30;;;;;;;;;;5075686;28;20448;-67
2022/10/29 04:20:34;;;;;;;29.33;17.80;;;;;;;;;;5075934;28;20454;-67
2022/10/29 04:23:03;;;;;;;24.57;15.80;;;;;;;;;;5075992;28;20452;-67
2022/10/29 04:25:30;;;;;;;25.30;16.90;;;;;;;;;;5075255;28;20491;-67
2022/10/29 04:27:57;;;;;;;30.23;16.10;;;;;;;;;;5076337;28;20804;-66
2022/10/29 04:30:25;;;;;;;29.00;15.27;;;;;;;;;;5076002;28;20451;-66
2022/10/29 04:32:56;;;;;;;22.10;14.00;;;;;;;;;;5075751;28;20446;-67
2022/10/29 04:35:23;;;;;;;20.97;15.97;;;;;;;;;;5076156;28;20464;-67
2022/10/29 04:37:50;;;;;;;20.07;14.53;;;;;;;;;;5075164;28;20447;-66
2022/10/29 04:40:21;;;;;;;29.90;16.97;;;;;;;;;;5075405;28;20444;-66
2022/10/29 04:42:48;;;;;;;25.67;15.93;;;;;;;;;;5075648;28;20445;-66
2022/10/29 04:45:15;;;;;;;28.40;17.20;;;;;;;;;;5075494;28;20481;-66
2022/10/29 04:47:42;;;;;;;30.97;19.77;;;;;;;;;;5075285;28;20443;-67
2022/10/29 04:50:09;;;;;;;29.33;17.43;;;;;;;;;;5075502;28;20439;-66
2022/10/29 04:52:37;;;;;;;25.17;16.97;;;;;;;;;;5075440;28;20452;-66
2022/10/29 04:55:04;;;;;;;27.60;16.23;;;;;;;;;;5075446;28;20450;-67
2022/10/29 04:57:33;;;;;;;28.07;16.27;;;;;;;;;;5075334;28;20542;-68
2022/10/29 05:00:00;;;;;;;24.63;17.40;;;;;;;;;;5075097;28;20783;-67
2022/10/29 05:02:27;;;;;;;23.40;16.60;;;;;;;;;;5075337;28;20432;-67
2022/10/29 05:04:54;;;;;;;25.63;15.90;;;;;;;;;;5075425;28;20490;-67
2022/10/29 05:07:21;;;;;;;20.60;15.30;;;;;;;;;;5074412;28;20442;-66
2022/10/29 05:09:48;;;;;;;24.80;15.70;;;;;;;;;;5074943;28;20459;-67
2022/10/29 05:12:16;;;;;;;28.57;15.07;;;;;;;;;;5075090;28;20446;-67
2022/10/29 05:14:44;;;;;;;29.40;15.50;;;;;;;;;;5075487;28;20446;-67
2022/10/29 05:17:11;;;;;;;30.10;16.70;;;;;;;;;;5074870;28;20795;-67
2022/10/29 05:19:38;;;;;;;28.87;17.47;;;;;;;;;;5074397;28;20931;-66
2022/10/29 05:22:06;;;;;;;28.10;16.10;;;;;;;;;;5074618;28;20449;-66
2022/10/29 05:24:33;;;;;;;40.13;17.43;;;;;;;;;;5074495;28;20475;-67
2022/10/29 05:27:01;;;;;;;28.23;17.50;;;;;;;;;;5074827;28;20446;-67
2022/10/29 05:29:28;;;;;;;27.80;16.40;;;;;;;;;;5074734;28;20441;-67
2022/10/29 05:31:56;;;;;;;29.93;15.60;;;;;;;;;;5074880;28;20447;-66
2022/10/29 05:34:23;;;;;;;26.40;17.30;;;;;;;;;;5073826;28;20450;-67
2022/10/29 05:36:51;;;;;;;28.63;16.73;;;;;;;;;;5074585;28;20543;-67
2022/10/29 05:39:18;;;;;;;27.60;15.70;;;;;;;;;;5074195;28;20452;-66
2022/10/29 05:41:46;;;;;;;22.27;17.67;;;;;;;;;;5074337;28;20446;-67
2022/10/29 05:44:13;;;;;;;28.30;16.43;;;;;;;;;;5074624;28;20449;-66
2022/10/29 05:46:40;;;;;;;23.27;17.10;;;;;;;;;;5074259;28;20448;-67
2022/10/29 05:49:11;;;;;;;163.77;126.30;;;;;;;;;;5074601;28;20530;-66
2022/10/29 05:51:38;;;;;;;34.53;21.13;;;;;;;;;;5075176;28;20424;-66
2022/10/29 05:54:05;;;;;;;34.80;18.80;;;;;;;;;;5074267;28;20541;-67
2022/10/29 05:56:32;;;;;;;37.37;20.13;;;;;;;;;;5074165;28;20523;-67
2022/10/29 05:59:00;;;;;;;31.17;18.37;;;;;;;;;;5073853;28;20449;-66
2022/10/29 06:01:27;;;;;;;29.67;17.10;;;;;;;;;;5073722;28;20465;-67
2022/10/29 06:03:54;;;;;;;36.03;18.50;;;;;;;;;;5073888;28;20453;-67
2022/10/29 06:06:22;;;;;;;27.03;17.33;;;;;;;;;;5073498;28;20478;-67
2022/10/29 06:08:50;;;;;;;34.83;19.30;;;;;;;;;;5074071;28;20451;-66
2022/10/29 06:11:17;;;;;;;30.37;18.97;;;;;;;;;;5074159;28;20540;-67
2022/10/29 06:13:44;;;;;;;33.23;17.20;;;;;;;;;;5074041;28;20442;-67
2022/10/29 06:16:11;;;;;;;25.30;17.60;;;;;;;;;;5074437;28;20457;-67
2022/10/29 06:18:38;;;;;;;32.07;18.70;;;;;;;;;;5073360;28;20450;-67
2022/10/29 06:21:06;;;;;;;40.40;21.13;;;;;;;;;;5073478;28;20438;-67
2022/10/29 06:23:34;;;;;;;28.37;17.30;;;;;;;;;;5073475;28;20938;-66
2022/10/29 06:26:02;;;;;;;31.57;17.57;;;;;;;;;;5073217;28;20496;-66
2022/10/29 06:28:29;;;;;;;27.23;17.47;;;;;;;;;;5073769;28;20479;-66
2022/10/29 06:30:56;;;;;;;32.73;19.67;;;;;;;;;;5073638;28;20954;-66
2022/10/29 06:33:23;;;;;;;28.70;18.83;;;;;;;;;;5073395;28;20450;-66
2022/10/29 06:35:51;;;;;;;27.37;17.20;;;;;;;;;;5073257;28;20977;-66
2022/10/29 06:38:18;;;;;;;25.07;16.77;;;;;;;;;;5073165;28;20940;-66
2022/10/29 06:40:52;;;;;;;28.83;19.00;;;;;;;;;;5072946;28;20961;-66
2022/10/29 06:43:19;;;;;;;34.67;19.20;;;;;;;;;;5073582;28;20499;-66
2022/10/29 06:45:46;;;;;;;33.67;18.27;;;;;;;;;;5072926;28;20848;-66
2022/10/29 06:48:13;;;;;;;31.23;19.73;;;;;;;;;;5073162;28;20929;-66
2022/10/29 06:50:41;;;;;;;32.23;19.67;;;;;;;;;;5073595;28;20811;-66
2022/10/29 06:53:10;;;;;;;31.20;18.73;;;;;;;;;;5073583;28;20942;-67
2022/10/29 06:55:37;;;;;;;32.97;20.37;;;;;;;;;;5073758;28;20823;-67
2022/10/29 06:58:06;;;;;;;37.47;20.90;;;;;;;;;;5073443;28;20813;-66
2022/10/29 07:00:34;;;;;;;36.33;20.37;;;;;;;;;;5073490;28;20453;-66
2022/10/29 07:03:02;;;;;;;30.67;19.47;;;;;;;;;;5073510;28;20849;-66
2022/10/29 07:05:29;;;;;;;35.30;19.60;;;;;;;;;;5073389;28;20516;-66
2022/10/29 07:07:57;;;;;;;39.20;18.80;;;;;;;;;;5073302;28;20469;-67
2022/10/29 07:10:24;;;;;;;28.90;18.57;;;;;;;;;;5073544;28;20842;-67
2022/10/29 07:12:51;;;;;;;27.00;18.77;;;;;;;;;;5072918;28;20453;-66
2022/10/29 07:15:20;;;;;;;32.67;21.50;;;;;;;;;;5073127;28;20450;-66
2022/10/29 07:17:55;;;;;;;27.20;17.97;;;;;;;;;;5073199;28;20457;-67
2022/10/29 07:20:22;;;;;;;39.17;24.70;;;;;;;;;;5073021;28;20435;-68
2022/10/29 07:22:49;;;;;;;31.87;19.40;;;;;;;;;;5071964;28;20447;-68
2022/10/29 07:25:16;;;;;;;27.13;19.77;;;;;;;;;;5071823;28;20489;-69
2022/10/29 07:27:44;;;;;;;40.83;19.13;;;;;;;;;;5072628;28;20469;-68
2022/10/29 07:30:11;;;;;;;37.50;18.23;;;;;;;;;;5073256;28;20454;-67
2022/10/29 07:32:39;;;;;;;25.07;17.93;;;;;;;;;;5072917;28;20446;-67
2022/10/29 07:35:07;;;;;;;30.87;18.23;;;;;;;;;;5072921;28;20449;-67
2022/10/29 07:37:34;;;;;;;28.03;16.83;;;;;;;;;;5073042;28;20442;-66
2022/10/29 07:40:01;;;;;;;32.37;17.00;;;;;;;;;;5073125;28;20446;-66
2022/10/29 07:42:28;;;;;;;31.47;17.17;;;;;;;;;;5073010;28;20443;-66
2022/10/29 07:44:55;;;;;;;24.30;16.40;;;;;;;;;;5072368;28;20451;-66
2022/10/29 07:47:23;;;;;;;36.00;20.20;;;;;;;;;;5072627;28;20454;-67
2022/10/29 07:49:51;;;;;;;31.30;16.07;;;;;;;;;;5072577;28;20947;-66
2022/10/29 07:52:18;;;;;;;29.27;17.80;;;;;;;;;;5073106;28;20529;-66
2022/10/29 07:54:45;;;;;;;34.07;18.50;;;;;;;;;;5072668;28;20441;-66
2022/10/29 07:57:13;;;;;;;25.00;15.30;;;;;;;;;;5075364;28;20458;-67
2022/10/29 07:59:40;;;;;;;34.43;17.60;;;;;;;;;;5076073;28;20440;-67
2022/10/29 08:02:09;;;;;;;26.23;16.83;;;;;;;;;;5076105;28;20447;-66
2022/10/29 08:04:36;;;;;;;26.43;15.33;;;;;;;;;;5075981;28;20451;-67
2022/10/29 08:07:04;;;;;;;23.10;15.47;;;;;;;;;;5076034;28;20484;-66
2022/10/29 08:09:31;;;;;;;32.37;17.03;;;;;;;;;;5076431;28;20451;-66
2022/10/29 08:11:59;;;;;;;26.70;14.77;;;;;;;;;;5076029;28;20447;-66
2022/10/29 08:14:26;;;;;;;34.83;17.50;;;;;;;;;;5076063;28;20443;-66
2022/10/29 08:16:54;;;;;;;23.83;17.20;;;;;;;;;;5075990;28;20451;-67
2022/10/29 08:19:21;;;;;;;24.77;15.23;;;;;;;;;;5075646;28;20489;-68
2022/10/29 08:21:48;;;;;;;25.37;16.50;;;;;;;;;;5076319;28;20456;-67
2022/10/29 08:24:18;;;;;;;29.60;15.43;;;;;;;;;;5075305;28;20442;-66
2022/10/29 08:26:45;;;;;;;27.50;14.60;;;;;;;;;;5075697;28;20487;-67
2022/10/29 08:29:13;;;;;;;26.40;14.20;;;;;;;;;;5076051;28;20470;-66
2022/10/29 08:31:40;;;;;;;28.67;14.87;;;;;;;;;;5075975;28;20445;-66
2022/10/29 08:34:07;;;;;;;34.47;16.87;;;;;;;;;;5075973;28;20451;-67
2022/10/29 08:36:34;;;;;;;32.77;17.00;;;;;;;;;;5076305;28;20939;-66
2022/10/29 08:39:01;;;;;;;21.60;16.50;;;;;;;;;;5075758;28;20470;-66
2022/10/29 08:41:39;;;;;;;24.13;14.80;;;;;;;;;;5075766;28;20449;-66
2022/10/29 08:44:40;;;;;;;26.47;14.40;;;;;;;;;;5075191;28;20449;-66
2022/10/29 08:47:10;;;;;;;18.23;14.13;;;;;;;;;;5075203;28;20462;-67
2022/10/29 08:49:41;;;;;;;33.27;15.80;;;;;;;;;;5075712;28;20444;-66
2022/10/29 08:52:10;;;;;;;21.93;15.50;;;;;;;;;;5075372;28;20461;-67
2022/10/29 08:54:39;;;;;;;24.23;14.10;;;;;;;;;;5074950;28;20449;-67
2022/10/29 08:57:13;;;;;;;26.70;15.53;;;;;;;;;;5075543;28;20451;-67
2022/10/29 08:59:43;;;;;;;20.40;14.57;;;;;;;;;;5076059;28;20773;-66
2022/10/29 09:02:14;;;;;;;21.30;13.70;;;;;;;;;;5075508;28;20434;-66
2022/10/29 09:04:41;;;;;;;23.07;14.80;;;;;;;;;;5074919;28;20949;-66
2022/10/29 09:07:31;;;;;;;20.30;13.53;;;;;;;;;;5074766;28;20524;-66
2022/10/29 09:10:00;;;;;;;24.27;14.50;;;;;;;;;;5071889;28;20489;-66
2022/10/29 09:12:41;;;;;;;22.17;14.43;;;;;;;;;;5075171;28;20451;-67
2022/10/29 09:15:25;;;;;;;20.93;15.30;;;;;;;;;;5074787;28;20440;-66
2022/10/29 09:18:02;;;;;;;20.03;12.80;;;;;;;;;;5075254;28;20465;-67
2022/10/29 09:20:34;;;;;;;18.20;12.63;;;;;;;;;;5075165;28;20429;-67
2022/10/29 09:23:05;;;;;;;24.43;13.00;;;;;;;;;;5075050;28;20763;-67
2022/10/29 09:25:35;;;;;;;26.77;12.30;;;;;;;;;;5074043;28;20477;-66
2022/10/29 09:28:14;;;;;;;20.13;11.53;;;;;;;;;;5075031;28;20456;-66
2022/10/29 09:30:44;;;;;;;24.97;12.43;;;;;;;;;;5074879;28;20778;-66
2022/10/29 09:33:14;;;;;;;17.30;11.33;;;;;;;;;;5075371;28;20436;-67
2022/10/29 09:35:44;;;;;;;22.17;11.00;;;;;;;;;;5074700;28;20451;-67
2022/10/29 09:38:15;;;;;;;18.87;12.40;;;;;;;;;;5074339;28;20967;-67
2022/10/29 09:40:43;;;;;;;27.17;13.20;;;;;;;;;;5074773;28;20430;-68
2022/10/29 09:43:18;;;;;;;22.37;12.93;;;;;;;;;;5074524;28;20439;-67
2022/10/29 09:45:49;;;;;;;18.83;11.13;;;;;;;;;;5073783;28;20497;-67
2022/10/29 09:48:18;;;;;;;19.67;10.77;;;;;;;;;;5074380;28;20431;-68
2022/10/29 09:50:52;;;;;;;25.87;12.07;;;;;;;;;;5074253;28;20448;-67
2022/10/29 09:53:20;;;;;;;19.03;11.13;;;;;;;;;;5074388;28;20431;-67
2022/10/29 09:55:52;;;;;;;20.33;11.10;;;;;;;;;;5074126;28;20451;-67
2022/10/29 09:58:22;;;;;;;18.17;10.80;;;;;;;;;;5074392;28;20427;-67
2022/10/29 10:00:50;;;;;;;22.30;10.93;;;;;;;;;;5074173;28;20443;-67
2022/10/29 10:03:20;;;;;;;21.43;12.00;;;;;;;;;;5074357;28;20436;-67
2022/10/29 10:05:58;;;;;;;17.10;11.33;;;;;;;;;;5072960;28;20456;-66
2022/10/29 10:08:25;;;;;;;22.50;9.77;;;;;;;;;;5073931;28;20921;-66
2022/10/29 10:10:53;;;;;;;21.83;10.90;;;;;;;;;;5074071;28;20437;-65
2022/10/29 10:13:23;;;;;;;21.50;11.43;;;;;;;;;;5073953;28;20928;-66
2022/10/29 10:15:52;;;;;;;19.40;10.73;;;;;;;;;;5074359;28;20454;-67
2022/10/29 10:18:20;;;;;;;23.63;13.03;;;;;;;;;;5073899;28;20502;-67
2022/10/29 10:20:49;;;;;;;20.00;10.43;;;;;;;;;;5073658;28;20440;-66
2022/10/29 10:23:20;;;;;;;21.40;10.50;;;;;;;;;;5074042;28;20439;-66
2022/10/29 10:25:47;;;;;;;19.97;10.80;;;;;;;;;;5073490;28;20525;-67
2022/10/29 10:28:16;;;;;;;17.20;10.37;;;;;;;;;;5074302;28;20771;-67
2022/10/29 10:30:45;;;;;;;26.30;10.63;;;;;;;;;;5073959;28;20501;-67
2022/10/29 10:33:22;;;;;;;19.03;9.63;;;;;;;;;;5074223;28;20454;-67
2022/10/29 10:35:49;;;;;;;21.20;10.43;;;;;;;;;;5074145;28;20451;-67
2022/10/29 10:38:17;;;;;;;17.23;10.20;;;;;;;;;;5073678;28;20440;-67
2022/10/29 10:40:44;;;;;;;16.57;9.63;;;;;;;;;;5074287;28;20441;-67
2022/10/29 10:43:19;;;;;;;19.63;9.70;;;;;;;;;;5073882;28;20446;-67
2022/10/29 10:45:52;;;;;;;13.90;8.20;;;;;;;;;;5073156;28;20428;-66
2022/10/29 10:48:20;;;;;;;18.57;9.93;;;;;;;;;;5073799;28;20527;-67
2022/10/29 10:50:47;;;;;;;14.57;8.87;;;;;;;;;;5073518;28;20448;-66
2022/10/29 10:53:17;;;;;;;21.30;8.97;;;;;;;;;;5073387;28;20497;-66
2022/10/29 10:55:47;;;;;;;9.00;6.77;;;;;;;;;;5073335;28;20448;-66
2022/10/29 10:58:17;;;;;;;21.23;8.60;;;;;;;;;;5073245;28;20896;-66
2022/10/29 11:00:46;;;;;;;16.60;7.80;;;;;;;;;;5073952;28;20448;-66
2022/10/29 11:03:18;;;;;;;12.80;7.00;;;;;;;;;;5073683;28;20447;-66
2022/10/29 11:05:47;;;;;;;16.23;8.23;;;;;;;;;;5074052;28;20797;-66
2022/10/29 11:08:17;;;;;;;15.20;7.17;;;;;;;;;;5073167;28;20483;-66
2022/10/29 11:10:49;;;;;;;21.07;7.27;;;;;;;;;;5073112;28;20425;-66
2022/10/29 11:13:17;;;;;;;14.13;8.43;;;;;;;;;;5073493;28;20429;-66
2022/10/29 11:15:48;;;;;;;22.33;7.83;;;;;;;;;;5073330;28;20479;-66
2022/10/29 11:18:19;;;;;;;12.00;6.67;;;;;;;;;;5073110;28;20437;-66
2022/10/29 11:20:48;;;;;;;16.40;7.70;;;;;;;;;;5073029;28;20447;-66
2022/10/29 11:23:23;;;;;;;17.57;8.13;;;;;;;;;;5072427;28;20452;-66
2022/10/29 11:25:52;;;;;;;13.53;6.97;;;;;;;;;;5073245;28;20489;-66
2022/10/29 11:28:24;;;;;;;13.50;6.50;;;;;;;;;;5072796;28;20484;-66
2022/10/29 11:30:52;;;;;;;12.73;6.70;;;;;;;;;;5073266;28;20444;-66
2022/10/29 11:33:25;;;;;;;11.63;6.40;;;;;;;;;;5076557;28;20467;-66
2022/10/29 11:35:55;;;;;;;13.83;6.00;;;;;;;;;;5078015;28;20469;-66
2022/10/29 11:38:25;;;;;;;13.77;6.20;;;;;;;;;;5076590;28;20432;-66
2022/10/29 11:40:57;;;;;;;11.10;6.40;;;;;;;;;;5076977;28;20444;-67
2022/10/29 11:43:25;;;;;;;11.63;6.30;;;;;;;;;;5076391;28;20480;-66
2022/10/29 11:45:58;;;;;;;26.97;8.40;;;;;;;;;;5076210;28;20467;-67
2022/10/29 11:48:32;;;;;;;14.10;6.73;;;;;;;;;;5076160;28;20475;-67
2022/10/29 11:51:04;;;;;;;20.60;7.13;;;;;;;;;;5076962;28;20432;-66
2022/10/29 11:53:48;;;;;;;11.27;6.43;;;;;;;;;;5076168;28;20433;-66
2022/10/29 11:56:20;;;;;;;20.77;7.73;;;;;;;;;;5076442;28;20429;-67
2022/10/29 11:58:51;;;;;;;8.50;5.63;;;;;;;;;;5076653;28;20437;-67
2022/10/29 12:01:20;;;;;;;18.13;6.63;;;;;;;;;;5076018;28;20445;-66
2022/10/29 12:03:59;;;;;;;10.30;6.10;;;;;;;;;;5076230;28;20956;-66
2022/10/29 12:06:31;;;;;;;14.93;5.97;;;;;;;;;;5075996;28;20528;-66
2022/10/29 12:09:06;;;;;;;16.90;6.67;;;;;;;;;;5076515;28;20432;-66
2022/10/29 12:11:36;;;;;;;11.97;6.37;;;;;;;;;;5076943;28;20446;-66
2022/10/29 12:14:07;;;;;;;11.23;6.40;;;;;;;;;;5076128;28;20431;-66
2022/10/29 12:16:40;;;;;;;12.90;6.50;;;;;;;;;;5076958;28;20823;-66
2022/10/29 12:19:14;;;;;;;13.10;6.33;;;;;;;;;;5076237;28;20430;-67
2022/10/29 12:21:45;;;;;;;10.57;5.83;;;;;;;;;;5075654;28;20540;-65
2022/10/29 12:24:23;;;;;;;11.83;6.30;;;;;;;;;;5075978;28;20433;-69
2022/10/29 12:26:53;;;;;;;16.20;5.93;;;;;;;;;;5076061;28;20462;-67
2022/10/29 12:29:22;;;;;;;20.43;5.90;;;;;;;;;;5075724;28;20924;-67
2022/10/29 12:31:54;;;;;;;11.27;6.07;;;;;;;;;;5075987;28;20445;-68
2022/10/29 12:34:25;;;;;;;14.20;6.40;;;;;;;;;;5075332;28;20477;-67
2022/10/29 12:36:57;;;;;;;11.73;5.70;;;;;;;;;;5075748;28;20441;-70
2022/10/29 12:39:28;;;;;;;26.03;6.37;;;;;;;;;;5075897;28;20430;-71
2022/10/29 12:41:58;;;;;;;10.30;6.43;;;;;;;;;;5075995;28;20437;-65
2022/10/29 12:44:29;;;;;;;11.53;6.47;;;;;;;;;;5075644;28;20519;-65
2022/10/29 12:46:59;;;;;;;11.43;5.77;;;;;;;;;;5075336;28;20512;-65
2022/10/29 12:49:36;;;;;;;12.10;5.67;;;;;;;;;;5075663;28;20429;-65
2022/10/29 12:52:05;;;;;;;9.50;5.20;;;;;;;;;;5075310;28;20528;-65
2022/10/29 12:54:36;;;;;;;10.90;5.83;;;;;;;;;;5075003;28;20452;-64
2022/10/29 12:57:04;;;;;;;21.53;6.50;;;;;;;;;;5075386;28;20437;-64
2022/10/29 12:59:33;;;;;;;8.67;5.20;;;;;;;;;;5075297;28;20507;-64
2022/10/29 13:02:33;;;;;;;17.43;6.50;;;;;;;;;;5075048;28;20961;-65
2022/10/29 13:05:15;;;;;;;14.37;6.00;;;;;;;;;;5013388;28;20448;-64
2022/10/29 13:07:57;;;;;;;9.37;5.93;;;;;;;;;;5013128;28;20488;-64
2022/10/29 13:10:42;;;;;;;16.30;5.90;;;;;;;;;;5052508;28;20456;-65
2022/10/29 13:13:19;;;;;;;15.37;8.13;;;;;;;;;;5074685;28;20441;-65
2022/10/29 13:15:48;;;;;;;13.43;6.23;;;;;;;;;;5074921;28;20449;-65
2022/10/29 13:18:20;;;;;;;13.77;6.33;;;;;;;;;;5074289;28;20449;-65
2022/10/29 13:20:49;;;;;;;14.30;5.73;;;;;;;;;;5074951;28;20449;-64
2022/10/29 13:23:33;;;;;;;18.57;6.73;;;;;;;;;;5074742;28;20860;-65
2022/10/29 13:26:02;;;;;;;14.13;6.10;;;;;;;;;;5074775;28;20527;-65
2022/10/29 13:28:48;;;;;;;11.83;4.70;;;;;;;;;;5073537;28;20473;-65
2022/10/29 13:31:34;;;;;;;11.80;6.23;;;;;;;;;;5073751;28;20441;-65
2022/10/29 13:34:01;;;;;;;13.73;6.37;;;;;;;;;;5074703;28;20465;-65
2022/10/29 13:36:38;;;;;;;16.27;5.67;;;;;;;;;;5073928;28;20447;-65
2022/10/29 13:39:19;;;;;;;12.10;6.10;;;;;;;;;;5073278;28;20442;-65
2022/10/29 13:41:50;;;;;;;12.60;5.60;;;;;;;;;;5074260;28;20487;-64
2022/10/29 13:44:20;;;;;;;18.27;6.00;;;;;;;;;;5074127;28;20472;-64
2022/10/29 13:46:48;;;;;;;13.53;5.70;;;;;;;;;;5074394;28;20444;-65
2022/10/29 13:49:20;;;;;;;15.83;5.57;;;;;;;;;;5074285;28;20438;-64
2022/10/29 13:51:56;;;;;;;14.13;5.17;;;;;;;;;;5074080;28;20440;-64
2022/10/29 13:54:26;;;;;;;20.33;5.83;;;;;;;;;;5074095;28;20436;-64
2022/10/29 13:56:54;;;;;;;10.70;5.03;;;;;;;;;;5074534;28;20450;-64
2022/10/29 13:59:25;;;;;;;10.57;5.20;;;;;;;;;;5073570;28;20451;-64
2022/10/29 14:02:03;;;;;;;18.47;6.00;;;;;;;;;;5074242;28;20437;-64
2022/10/29 14:04:32;;;;;;;10.63;5.33;;;;;;;;;;5073833;28;20463;-66
2022/10/29 14:07:01;;;;;;;21.33;5.57;;;;;;;;;;5074024;28;20441;-64
2022/10/29 14:09:37;;;;;;;10.53;5.67;;;;;;;;;;5054082;28;20449;-65
2022/10/29 14:12:06;;;;;;;14.60;6.00;;;;;;;;;;5054424;28;20429;-64
2022/10/29 14:14:37;;;;;;;13.73;7.97;;;;;;;;;;5054423;28;20454;-64
2022/10/29 14:17:11;;;;;;;11.17;6.00;;;;;;;;;;5054363;28;20437;-64
2022/10/29 14:19:43;;;;;;;12.30;6.00;;;;;;;;;;5053525;28;20446;-65
2022/10/29 14:22:22;;;;;;;14.80;5.80;;;;;;;;;;5053743;28;20423;-65
2022/10/29 14:24:49;;;;;;;12.73;6.03;;;;;;;;;;5053684;28;20476;-64
2022/10/29 14:27:16;;;;;;;14.43;6.40;;;;;;;;;;5053729;28;20474;-65
2022/10/29 14:29:44;;;;;;;10.87;5.50;;;;;;;;;;5053649;28;20472;-64
2022/10/29 14:32:12;;;;;;;11.50;6.03;;;;;;;;;;5053844;28;20454;-64
2022/10/29 14:34:40;;;;;;;8.03;4.93;;;;;;;;;;5054246;28;20540;-65